createdAt,value
2022-10-19T00:01:08.588Z,15.54
2022-10-19T00:03:36.233Z,15.51
2022-10-19T00:06:14.892Z,15.44
2022-10-19T00:08:42.194Z,15.39
2022-10-19T00:11:10.058Z,15.46
2022-10-19T00:13:37.887Z,15.41
2022-10-19T00:16:13.601Z,15.41
2022-10-19T00:18:43.396Z,15.34
2022-10-19T00:21:12.392Z,15.16
2022-10-19T00:23:39.232Z,14.91
2022-10-19T00:26:06.536Z,14.99
2022-10-19T00:28:33.767Z,15.11
2022-10-19T00:31:06.508Z,15.39
2022-10-19T00:33:33.840Z,15.37
2022-10-19T00:36:00.771Z,15.52
2022-10-19T00:38:27.751Z,15.58
2022-10-19T00:40:54.523Z,15.62
2022-10-19T00:43:27.412Z,15.46
2022-10-19T00:45:54.247Z,15.46
2022-10-19T00:48:25.743Z,15.29
2022-10-19T00:50:56.026Z,15.08
2022-10-19T00:53:26.194Z,15.13
2022-10-19T00:55:53.951Z,15.26
2022-10-19T00:58:20.782Z,15.25
2022-10-19T01:00:48.048Z,14.61
2022-10-19T01:03:15.108Z,15.21
2022-10-19T01:05:42.743Z,15.07
2022-10-19T01:08:11.182Z,15.35
2022-10-19T01:10:46.629Z,15.36
2022-10-19T01:13:34.831Z,14.88
2022-10-19T01:16:28.501Z,15.23
2022-10-19T01:19:07.466Z,15.08
2022-10-19T01:22:00.330Z,15.21
2022-10-19T01:25:19.832Z,15.01
2022-10-19T01:28:11.149Z,15.09
2022-10-19T01:31:14.059Z,14.94
2022-10-19T01:36:42.652Z,14.83
2022-10-19T01:39:25.288Z,14.81
2022-10-19T01:42:07.306Z,14.83
2022-10-19T01:45:04.886Z,14.89
2022-10-19T01:47:50.293Z,14.69
2022-10-19T01:50:43.069Z,13.87
2022-10-19T01:53:12.641Z,14.41
2022-10-19T01:55:43.124Z,14.62
2022-10-19T01:58:16.555Z,15.14
2022-10-19T02:00:46.440Z,15.22
2022-10-19T02:03:14.279Z,14.94
2022-10-19T02:05:42.191Z,14.96
2022-10-19T02:08:25.010Z,14.61
2022-10-19T02:10:53.722Z,14.70
2022-10-19T02:13:21.779Z,14.64
2022-10-19T02:15:52.753Z,14.53
2022-10-19T02:18:26.709Z,14.72
2022-10-19T02:20:53.570Z,14.82
2022-10-19T02:23:24.140Z,14.31
2022-10-19T02:25:51.204Z,14.23
2022-10-19T02:28:18.454Z,14.44
2022-10-19T02:30:45.368Z,14.84
2022-10-19T02:33:12.683Z,15.19
2022-10-19T02:35:40.222Z,15.22
2022-10-19T02:38:08.979Z,15.31
2022-10-19T02:40:39.699Z,15.30
2022-10-19T02:43:13.038Z,15.11
2022-10-19T02:45:59.299Z,14.77
2022-10-19T02:48:30.021Z,14.63
2022-10-19T02:50:57.527Z,14.93
2022-10-19T02:53:24.357Z,14.75
2022-10-19T02:55:52.060Z,14.17
2022-10-19T02:58:19.789Z,14.15
2022-10-19T03:00:46.599Z,13.81
2022-10-19T03:03:13.458Z,14.37
2022-10-19T03:05:40.350Z,14.70
2022-10-19T03:08:07.246Z,13.59
2022-10-19T03:10:34.417Z,13.74
2022-10-19T03:13:01.205Z,13.35
2022-10-19T03:15:29.912Z,13.66
2022-10-19T03:17:57.029Z,13.45
2022-10-19T03:20:24.224Z,13.41
2022-10-19T03:22:51.194Z,14.00
2022-10-19T03:25:18.000Z,14.13
2022-10-19T03:27:44.860Z,13.39
2022-10-19T03:30:12.010Z,13.09
2022-10-19T03:32:38.787Z,13.72
2022-10-19T03:35:06.339Z,14.09
2022-10-19T03:37:33.511Z,14.06
2022-10-19T03:40:00.642Z,13.85
2022-10-19T03:42:28.190Z,14.08
2022-10-19T03:44:55.831Z,14.16
2022-10-19T03:47:22.781Z,14.23
2022-10-19T03:49:50.537Z,13.75
2022-10-19T03:52:18.963Z,14.05
2022-10-19T03:54:46.549Z,13.99
2022-10-19T03:57:13.342Z,14.21
2022-10-19T03:59:40.254Z,13.70
2022-10-19T04:02:07.690Z,14.13
2022-10-19T04:04:34.566Z,14.01
2022-10-19T04:07:01.349Z,13.97
2022-10-19T04:09:28.084Z,14.14
2022-10-19T04:11:54.936Z,14.20
2022-10-19T04:14:32.913Z,14.38
2022-10-19T04:17:06.083Z,14.29
2022-10-19T04:19:32.885Z,14.31
2022-10-19T04:21:59.788Z,14.34
2022-10-19T04:24:26.714Z,14.22
2022-10-19T04:26:55.259Z,14.15
2022-10-19T04:29:26.462Z,14.09
2022-10-19T04:31:56.485Z,13.63
2022-10-19T04:34:24.202Z,13.67
2022-10-19T04:36:51.050Z,13.91
2022-10-19T04:39:18.336Z,14.02
2022-10-19T04:41:45.158Z,14.15
2022-10-19T04:44:11.967Z,14.14
2022-10-19T04:46:38.960Z,13.21
2022-10-19T04:49:06.897Z,13.84
2022-10-19T04:51:34.240Z,14.21
2022-10-19T04:54:03.099Z,14.32
2022-10-19T04:56:31.876Z,13.81
2022-10-19T04:59:00.219Z,13.33
2022-10-19T05:01:30.589Z,13.40
2022-10-19T05:04:02.972Z,12.90
2022-10-19T05:06:31.815Z,13.12
2022-10-19T05:08:59.473Z,13.40
2022-10-19T05:11:27.002Z,13.66
2022-10-19T05:13:53.793Z,14.21
2022-10-19T05:16:22.853Z,13.89
2022-10-19T05:18:51.948Z,13.57
2022-10-19T05:21:20.885Z,12.97
2022-10-19T05:23:50.636Z,13.00
2022-10-19T05:26:18.820Z,12.97
2022-10-19T05:28:56.815Z,13.16
2022-10-19T05:31:26.896Z,13.68
2022-10-19T05:33:54.066Z,13.81
2022-10-19T05:36:32.250Z,14.03
2022-10-19T05:39:02.489Z,13.82
2022-10-19T05:41:29.407Z,14.29
2022-10-19T05:43:58.594Z,14.61
2022-10-19T05:46:26.676Z,14.77
2022-10-19T05:48:55.374Z,14.80
2022-10-19T05:51:23.614Z,14.75
2022-10-19T05:53:51.068Z,14.76
2022-10-19T05:56:23.851Z,14.98
2022-10-19T05:58:51.100Z,14.93
2022-10-19T06:01:19.299Z,14.90
2022-10-19T06:03:47.184Z,14.94
2022-10-19T06:06:14.186Z,14.75
2022-10-19T06:08:41.041Z,14.25
2022-10-19T06:11:11.000Z,14.02
2022-10-19T06:13:38.957Z,13.99
2022-10-19T06:16:08.269Z,14.03
2022-10-19T06:18:35.220Z,13.94
2022-10-19T06:21:07.243Z,13.98
2022-10-19T06:23:35.360Z,14.21
2022-10-19T06:26:08.942Z,14.28
2022-10-19T06:28:37.298Z,14.21
2022-10-19T06:31:07.205Z,14.37
2022-10-19T06:33:36.433Z,14.73
2022-10-19T06:36:07.194Z,14.57
2022-10-19T06:38:34.171Z,14.21
2022-10-19T06:41:01.335Z,14.31
2022-10-19T06:43:28.146Z,14.49
2022-10-19T06:45:55.465Z,14.63
2022-10-19T06:48:23.024Z,14.81
2022-10-19T06:50:59.358Z,14.77
2022-10-19T06:53:27.103Z,15.08
2022-10-19T06:55:53.880Z,14.67
2022-10-19T06:58:20.658Z,14.97
2022-10-19T07:00:57.671Z,14.95
2022-10-19T07:03:25.720Z,15.18
2022-10-19T07:06:00.110Z,15.19
2022-10-19T07:08:29.351Z,15.07
2022-10-19T07:10:58.686Z,15.32
2022-10-19T07:13:26.792Z,15.34
2022-10-19T07:16:02.793Z,15.62
2022-10-19T07:18:29.682Z,15.73
2022-10-19T07:20:58.137Z,15.46
2022-10-19T07:23:26.910Z,15.08
2022-10-19T07:25:59.720Z,15.14
2022-10-19T07:28:27.053Z,14.78
2022-10-19T07:30:53.920Z,14.18
2022-10-19T07:33:20.851Z,15.10
2022-10-19T07:35:48.154Z,15.59
2022-10-19T07:38:14.997Z,15.79
2022-10-19T07:40:44.883Z,16.09
2022-10-19T07:43:14.137Z,16.05
2022-10-19T07:45:40.951Z,15.90
2022-10-19T07:48:07.809Z,15.96
2022-10-19T07:50:34.577Z,16.16
2022-10-19T07:53:03.448Z,16.18
2022-10-19T07:55:30.216Z,16.03
2022-10-19T07:58:01.481Z,15.85
2022-10-19T08:00:29.807Z,16.20
2022-10-19T08:03:19.359Z,16.38
2022-10-19T08:05:43.682Z,16.56
2022-10-19T08:08:10.486Z,16.63
2022-10-19T08:10:37.358Z,16.47
2022-10-19T08:13:04.335Z,16.54
2022-10-19T08:15:31.118Z,16.61
2022-10-19T08:17:58.067Z,16.65
2022-10-19T08:20:24.877Z,16.52
2022-10-19T08:22:56.370Z,16.81
2022-10-19T08:25:25.792Z,16.58
2022-10-19T08:27:52.707Z,16.64
2022-10-19T08:30:19.491Z,17.03
2022-10-19T08:32:46.289Z,17.09
2022-10-19T08:35:13.070Z,16.53
2022-10-19T08:37:44.830Z,16.78
2022-10-19T08:40:25.112Z,16.71
2022-10-19T08:43:02.862Z,16.58
2022-10-19T08:45:37.497Z,16.58
2022-10-19T08:48:22.856Z,16.90
2022-10-19T08:50:51.931Z,16.12
2022-10-19T08:53:26.372Z,16.48
2022-10-19T08:56:26.815Z,16.13
2022-10-19T08:59:25.131Z,15.96
2022-10-19T09:02:22.419Z,16.30
2022-10-19T09:05:00.438Z,16.14
2022-10-19T09:07:31.230Z,16.38
2022-10-19T09:10:13.247Z,16.73
2022-10-19T09:12:44.407Z,16.14
2022-10-19T09:15:34.634Z,16.53
2022-10-19T09:18:02.776Z,16.69
2022-10-19T09:20:41.412Z,16.22
2022-10-19T09:23:35.721Z,16.38
2022-10-19T09:26:05.815Z,16.75
2022-10-19T09:28:49.124Z,16.24
2022-10-19T09:31:25.036Z,16.08
2022-10-19T09:34:02.025Z,16.46
2022-10-19T09:36:51.241Z,16.52
2022-10-19T09:39:18.587Z,16.51
2022-10-19T09:41:54.770Z,16.51
2022-10-19T09:44:23.398Z,16.48
2022-10-19T09:47:02.332Z,16.67
2022-10-19T09:50:08.480Z,16.26
2022-10-19T09:52:39.402Z,16.43
2022-10-19T09:55:28.095Z,16.66
2022-10-19T09:58:14.509Z,16.83
2022-10-19T10:00:47.444Z,17.15
2022-10-19T10:03:43.390Z,16.76
2022-10-19T10:06:14.903Z,17.30
2022-10-19T10:08:47.822Z,16.87
2022-10-19T10:11:23.159Z,16.82
2022-10-19T10:13:52.758Z,16.99
2022-10-19T10:16:24.460Z,17.44
2022-10-19T10:18:55.792Z,17.40
2022-10-19T10:21:33.633Z,17.35
2022-10-19T10:24:06.341Z,17.17
2022-10-19T10:26:43.171Z,17.29
2022-10-19T10:29:22.445Z,17.01
2022-10-19T10:32:11.006Z,17.61
2022-10-19T10:34:59.965Z,17.23
2022-10-19T10:37:40.211Z,16.48
2022-10-19T10:40:30.688Z,16.42
2022-10-19T10:43:14.577Z,16.69
2022-10-19T10:45:45.201Z,16.34
2022-10-19T10:48:48.506Z,16.54
2022-10-19T10:51:41.266Z,17.09
2022-10-19T10:54:21.945Z,17.24
2022-10-19T10:57:12.193Z,17.38
2022-10-19T11:00:02.283Z,17.51
2022-10-19T11:03:08.667Z,17.41
2022-10-19T11:05:46.724Z,17.08
2022-10-19T11:08:48.787Z,17.12
2022-10-19T11:11:23.912Z,17.03
2022-10-19T11:13:56.843Z,17.00
2022-10-19T11:16:42.533Z,17.40
2022-10-19T11:19:27.302Z,17.45
2022-10-19T11:22:15.570Z,17.25
2022-10-19T11:25:07.297Z,17.41
2022-10-19T11:27:49.261Z,17.58
2022-10-19T11:30:22.855Z,17.68
2022-10-19T11:33:05.930Z,17.58
2022-10-19T11:35:54.001Z,17.39
2022-10-19T11:38:30.940Z,17.66
2022-10-19T11:41:18.579Z,17.80
2022-10-19T11:43:45.945Z,17.59
2022-10-19T11:46:18.705Z,17.89
2022-10-19T11:49:09.335Z,17.87
2022-10-19T11:51:44.304Z,18.18
2022-10-19T11:54:17.074Z,18.02
2022-10-19T11:57:03.340Z,17.88
2022-10-19T11:59:49.442Z,17.97
2022-10-19T12:02:55.709Z,18.13
2022-10-19T12:05:31.263Z,18.00
2022-10-19T12:08:27.859Z,17.74
2022-10-19T12:11:05.240Z,17.58
2022-10-19T12:13:59.854Z,18.17
2022-10-19T12:16:37.172Z,18.13
2022-10-19T12:19:06.084Z,18.42
2022-10-19T12:21:39.423Z,17.72
2022-10-19T12:24:13.754Z,17.79
2022-10-19T12:26:41.460Z,17.42
2022-10-19T12:29:33.679Z,17.78
2022-10-19T12:32:03.346Z,17.86
2022-10-19T12:34:36.090Z,17.58
2022-10-19T12:37:28.192Z,17.60
2022-10-19T12:40:04.573Z,17.54
2022-10-19T12:42:42.277Z,17.97
2022-10-19T12:45:30.355Z,17.81
2022-10-19T12:48:10.981Z,18.35
2022-10-19T12:51:02.245Z,18.02
2022-10-19T12:53:42.670Z,17.81
2022-10-19T12:56:09.450Z,17.81
2022-10-19T12:58:49.738Z,17.83
2022-10-19T13:01:21.376Z,17.91
2022-10-19T13:03:53.250Z,18.07
2022-10-19T13:06:23.377Z,18.23
2022-10-19T13:08:53.257Z,18.56
2022-10-19T13:11:21.001Z,18.48
2022-10-19T13:14:06.775Z,18.40
2022-10-19T13:16:42.261Z,17.95
2022-10-19T13:19:12.153Z,18.48
2022-10-19T13:21:52.681Z,18.83
2022-10-19T13:24:26.572Z,18.88
2022-10-19T13:27:02.787Z,18.92
2022-10-19T13:29:39.243Z,18.79
2022-10-19T13:32:44.617Z,18.45
2022-10-19T13:35:35.302Z,18.67
2022-10-19T13:38:17.254Z,18.82
2022-10-19T13:40:50.041Z,19.43
2022-10-19T13:43:25.163Z,19.16
2022-10-19T13:46:16.128Z,19.26
2022-10-19T13:49:04.340Z,18.81
2022-10-19T13:52:02.937Z,18.29
2022-10-19T13:54:35.804Z,18.56
2022-10-19T13:57:33.944Z,18.84
2022-10-19T14:00:20.569Z,18.45
2022-10-19T14:03:11.582Z,18.36
2022-10-19T14:06:12.409Z,18.65
2022-10-19T14:09:15.179Z,18.44
2022-10-19T14:11:45.719Z,18.06
2022-10-19T14:14:20.462Z,18.36
2022-10-19T14:17:04.206Z,18.20
2022-10-19T14:19:34.371Z,18.22
2022-10-19T14:22:17.050Z,18.22
2022-10-19T14:24:44.190Z,18.58
2022-10-19T14:27:17.587Z,18.56
2022-10-19T14:29:50.888Z,18.35
2022-10-19T14:32:37.221Z,18.53
2022-10-19T14:35:15.228Z,19.19
2022-10-19T14:37:43.793Z,18.77
2022-10-19T14:40:10.533Z,18.78
2022-10-19T14:42:44.719Z,19.06
2022-10-19T14:45:21.282Z,18.91
2022-10-19T14:47:59.382Z,19.09
2022-10-19T14:50:35.242Z,19.14
2022-10-19T14:53:19.438Z,18.93
2022-10-19T14:55:47.509Z,18.94
2022-10-19T14:58:19.059Z,18.93
2022-10-19T15:00:48.457Z,18.75
2022-10-19T15:03:29.107Z,18.71
2022-10-19T15:06:01.309Z,18.75
2022-10-19T15:08:44.712Z,18.87
2022-10-19T15:11:36.468Z,18.76
2022-10-19T15:14:14.313Z,18.55
2022-10-19T15:16:52.083Z,18.70
2022-10-19T15:19:33.475Z,18.59
2022-10-19T15:22:23.497Z,18.44
2022-10-19T15:25:01.043Z,18.29
2022-10-19T15:27:39.849Z,18.01
2022-10-19T15:30:19.215Z,17.95
2022-10-19T15:32:51.762Z,18.08
2022-10-19T15:35:27.516Z,17.83
2022-10-19T15:38:06.282Z,18.05
2022-10-19T15:40:35.519Z,17.95
2022-10-19T15:43:35.037Z,17.79
2022-10-19T15:46:05.964Z,17.83
2022-10-19T15:48:41.749Z,17.69
2022-10-19T15:51:23.918Z,17.64
2022-10-19T15:53:52.144Z,17.41
2022-10-19T15:56:19.402Z,17.20
2022-10-19T15:58:53.269Z,17.31
2022-10-19T16:01:23.620Z,17.18
2022-10-19T16:03:50.709Z,17.09
2022-10-19T16:06:19.202Z,17.05
2022-10-19T16:08:47.053Z,16.95
2022-10-19T16:11:19.401Z,16.96
2022-10-19T16:13:46.278Z,16.70
2022-10-19T16:16:22.016Z,16.62
2022-10-19T16:18:49.031Z,16.50
2022-10-19T16:21:16.038Z,16.43
2022-10-19T16:23:42.939Z,16.16
2022-10-19T16:26:13.982Z,15.99
2022-10-19T16:28:40.958Z,16.00
2022-10-19T16:31:07.821Z,16.00
2022-10-19T16:33:34.669Z,15.87
2022-10-19T16:36:05.250Z,15.74
2022-10-19T16:38:32.303Z,15.68
2022-10-19T16:41:10.623Z,15.57
2022-10-19T16:43:38.242Z,15.48
2022-10-19T16:46:06.080Z,15.28
2022-10-19T16:48:33.876Z,15.28
2022-10-19T16:51:06.789Z,15.29
2022-10-19T16:53:35.065Z,15.13
2022-10-19T16:56:13.267Z,14.97
2022-10-19T16:58:40.787Z,14.83
2022-10-19T17:01:18.838Z,14.97
2022-10-19T17:03:47.411Z,14.84
2022-10-19T17:06:15.481Z,14.90
2022-10-19T17:09:14.665Z,14.85
2022-10-19T17:11:34.633Z,14.82
2022-10-19T17:14:07.666Z,14.60
2022-10-19T17:16:36.824Z,14.35
2022-10-19T17:19:05.378Z,14.41
2022-10-19T17:21:37.981Z,14.39
2022-10-19T17:24:08.144Z,14.29
2022-10-19T17:26:38.160Z,14.26
2022-10-19T17:29:06.431Z,14.44
2022-10-19T17:31:34.045Z,14.39
2022-10-19T17:34:01.987Z,14.31
2022-10-19T17:36:35.927Z,14.02
2022-10-19T17:39:07.156Z,14.40
2022-10-19T17:41:34.155Z,14.22
2022-10-19T17:44:03.560Z,14.14
2022-10-19T17:46:33.222Z,14.36
2022-10-19T17:49:00.842Z,14.29
2022-10-19T17:51:33.523Z,14.11
2022-10-19T17:54:08.296Z,14.32
2022-10-19T17:56:36.717Z,14.24
2022-10-19T17:59:04.491Z,14.28
2022-10-19T18:01:31.617Z,14.19
2022-10-19T18:03:58.460Z,14.31
2022-10-19T18:06:34.071Z,14.45
2022-10-19T18:09:02.960Z,14.36
2022-10-19T18:11:34.634Z,14.29
2022-10-19T18:14:02.003Z,14.16
2022-10-19T18:16:34.799Z,14.13
2022-10-19T18:19:02.469Z,14.21
2022-10-19T18:21:33.001Z,14.02
2022-10-19T18:24:01.976Z,14.22
2022-10-19T18:26:31.287Z,14.25
2022-10-19T18:28:59.233Z,14.46
2022-10-19T18:31:29.385Z,14.20
2022-10-19T18:33:59.763Z,14.39
2022-10-19T18:36:27.440Z,14.24
2022-10-19T18:38:56.994Z,14.17
2022-10-19T18:41:24.534Z,14.27
2022-10-19T18:43:57.701Z,14.11
2022-10-19T18:46:26.062Z,14.32
2022-10-19T18:48:53.737Z,14.41
2022-10-19T18:51:22.770Z,14.34
2022-10-19T18:53:50.214Z,13.91
2022-10-19T18:56:20.064Z,14.30
2022-10-19T18:58:47.558Z,14.25
2022-10-19T19:01:19.992Z,14.23
2022-10-19T19:03:49.962Z,14.17
2022-10-19T19:06:29.755Z,14.36
2022-10-19T19:08:58.587Z,14.27
2022-10-19T19:11:30.601Z,14.29
2022-10-19T19:14:10.834Z,14.19
2022-10-19T19:16:38.403Z,14.18
2022-10-19T19:19:06.959Z,14.20
2022-10-19T19:21:35.639Z,14.15
2022-10-19T19:24:05.727Z,14.09
2022-10-19T19:26:37.179Z,13.91
2022-10-19T19:29:04.481Z,13.77
2022-10-19T19:31:31.488Z,13.75
2022-10-19T19:34:02.138Z,13.95
2022-10-19T19:36:29.232Z,14.06
2022-10-19T19:38:56.795Z,13.94
2022-10-19T19:41:24.803Z,14.05
2022-10-19T19:43:51.649Z,13.95
2022-10-19T19:46:19.666Z,13.81
2022-10-19T19:48:48.119Z,13.86
2022-10-19T19:51:20.866Z,13.99
2022-10-19T19:53:48.264Z,13.98
2022-10-19T19:56:16.057Z,13.83
2022-10-19T19:58:44.376Z,13.69
2022-10-19T20:01:14.154Z,13.70
2022-10-19T20:03:42.268Z,13.66
2022-10-19T20:06:10.345Z,13.66
2022-10-19T20:08:38.086Z,13.67
2022-10-19T20:11:07.521Z,13.78
2022-10-19T20:13:35.102Z,13.77
2022-10-19T20:16:12.542Z,13.56
2022-10-19T20:18:45.089Z,13.64
2022-10-19T20:21:13.161Z,13.76
2022-10-19T20:23:40.138Z,13.82
2022-10-19T20:26:09.053Z,13.72
2022-10-19T20:28:35.906Z,13.69
2022-10-19T20:31:08.375Z,13.25
2022-10-19T20:33:37.647Z,13.35
2022-10-19T20:36:06.538Z,13.42
2022-10-19T20:38:34.615Z,12.99
2022-10-19T20:41:08.062Z,13.16
2022-10-19T20:43:38.574Z,13.27
2022-10-19T20:46:07.575Z,13.23
2022-10-19T20:48:35.023Z,13.02
2022-10-19T20:51:23.021Z,13.00
2022-10-19T20:53:51.902Z,12.72
2022-10-19T20:56:24.446Z,12.81
2022-10-19T20:58:59.138Z,12.72
2022-10-19T21:01:27.399Z,12.68
2022-10-19T21:04:00.534Z,13.02
2022-10-19T21:06:30.138Z,12.84
2022-10-19T21:08:57.739Z,12.84
2022-10-19T21:11:27.986Z,12.56
2022-10-19T21:13:58.012Z,12.80
2022-10-19T21:16:37.660Z,12.76
2022-10-19T21:19:11.834Z,12.62
2022-10-19T21:21:41.396Z,12.73
2022-10-19T21:24:13.212Z,12.73
2022-10-19T21:26:40.254Z,12.65
2022-10-19T21:29:11.460Z,12.38
2022-10-19T21:31:42.186Z,12.39
2022-10-19T21:34:20.351Z,12.51
2022-10-19T21:36:47.539Z,12.30
2022-10-19T21:39:14.569Z,12.25
2022-10-19T21:41:41.438Z,12.62
2022-10-19T21:44:08.711Z,12.37
2022-10-19T21:46:35.512Z,12.24
2022-10-19T21:49:02.313Z,12.27
2022-10-19T21:51:42.142Z,12.48
2022-10-19T21:56:44.766Z,12.40
2022-10-19T21:59:12.404Z,12.23
2022-10-19T22:01:41.238Z,12.26
2022-10-19T22:04:17.289Z,12.43
2022-10-19T22:06:44.716Z,12.13
2022-10-19T22:09:14.929Z,12.20
2022-10-19T22:12:01.701Z,12.29
2022-10-19T22:14:28.733Z,12.26
2022-10-19T22:16:55.654Z,12.54
2022-10-19T22:19:22.802Z,12.32
2022-10-19T22:21:49.598Z,12.26
2022-10-19T22:24:16.476Z,12.47
2022-10-19T22:26:46.764Z,12.43
2022-10-19T22:29:13.766Z,12.38
2022-10-19T22:31:40.592Z,12.55
2022-10-19T22:34:11.610Z,12.36
2022-10-19T22:36:38.792Z,12.44
2022-10-19T22:39:06.688Z,11.89
2022-10-19T22:42:30.251Z,12.22
2022-10-19T22:45:15.627Z,12.32
2022-10-19T22:47:42.404Z,12.17
2022-10-19T22:50:11.748Z,12.13
2022-10-19T22:52:39.075Z,12.07
2022-10-19T22:55:06.334Z,11.96
2022-10-19T22:57:33.182Z,12.09
2022-10-19T22:59:59.995Z,12.10
2022-10-19T23:02:26.907Z,12.13
2022-10-19T23:04:53.672Z,11.96
2022-10-19T23:07:20.485Z,11.98
2022-10-19T23:09:47.309Z,12.23
2022-10-19T23:12:14.066Z,11.96
2022-10-19T23:14:40.813Z,12.09
2022-10-19T23:17:07.572Z,12.11
2022-10-19T23:19:34.352Z,12.01
2022-10-19T23:22:01.104Z,12.15
2022-10-19T23:24:27.983Z,12.06
2022-10-19T23:26:54.795Z,11.76
2022-10-19T23:29:21.697Z,11.98
2022-10-19T23:31:49.151Z,12.02
2022-10-19T23:34:16.097Z,11.80
2022-10-19T23:36:42.876Z,11.80
2022-10-19T23:39:09.713Z,11.67
2022-10-19T23:41:36.688Z,11.81
2022-10-19T23:44:04.733Z,11.66
2022-10-19T23:46:31.921Z,11.81
2022-10-19T23:48:58.671Z,11.78
2022-10-19T23:51:25.431Z,11.87
2022-10-19T23:53:53.253Z,11.77
2022-10-19T23:56:22.990Z,11.75
2022-10-19T23:58:50.987Z,11.97
